Bellocq, Argentina
Current Conditions -  °F | °C
As of 11:12 AM on Monday 24 Nov 2014 (Local Time) from SAEZ Reporting Station
Thunderstorm Thunderstorm  
Wind Chill: 72°   Ceiling: 4000
Heat Index: 72°   Visibility: 3mi
Dew Point: 63°   Wind: 8mph
Humidity: 73%   Direction: 270°W
Pressure: 29.8"   Gusts: NA
Location:  35.8°S, 61.35°W
Report Text: SAEZ 241412Z 27007KT 5000 -TSRA SCT010 OVC040 FEW050CB 22/17 Q1009
Loading
Personal Weather Stations






























Interactive Weather Map New forecast layout! Learn more

10-Day Weather Forecast

Advertisements
Track Severe Weather on mobile